sensor_id;sensor_type;location;lat;lon;timestamp;P1;durP1;ratioP1;P2;durP2;ratioP2
21494;SDS011;10909;53.590;10.054;2023-07-31T00:00:33;2.03;;;1.30;;
21494;SDS011;10909;53.590;10.054;2023-07-31T00:02:59;1.80;;;1.27;;
21494;SDS011;10909;53.590;10.054;2023-07-31T00:05:25;3.00;;;1.10;;
21494;SDS011;10909;53.590;10.054;2023-07-31T00:07:50;2.22;;;1.67;;
21494;SDS011;10909;53.590;10.054;2023-07-31T00:10:16;2.17;;;1.27;;
21494;SDS011;10909;53.590;10.054;2023-07-31T00:12:42;2.75;;;1.05;;
21494;SDS011;10909;53.590;10.054;2023-07-31T00:15:10;1.27;;;1.05;;
21494;SDS011;10909;53.590;10.054;2023-07-31T00:17:36;2.20;;;1.33;;
21494;SDS011;10909;53.590;10.054;2023-07-31T00:20:02;1.90;;;1.38;;
21494;SDS011;10909;53.590;10.054;2023-07-31T00:22:28;2.78;;;1.20;;
21494;SDS011;10909;53.590;10.054;2023-07-31T00:24:54;3.95;;;1.10;;
21494;SDS011;10909;53.590;10.054;2023-07-31T00:27:20;1.60;;;1.20;;
21494;SDS011;10909;53.590;10.054;2023-07-31T00:29:46;1.27;;;1.13;;
21494;SDS011;10909;53.590;10.054;2023-07-31T00:32:11;2.17;;;1.27;;
21494;SDS011;10909;53.590;10.054;2023-07-31T00:34:37;1.35;;;1.20;;
21494;SDS011;10909;53.590;10.054;2023-07-31T00:37:03;5.10;;;1.58;;
21494;SDS011;10909;53.590;10.054;2023-07-31T00:39:29;3.85;;;1.63;;
21494;SDS011;10909;53.590;10.054;2023-07-31T00:41:56;3.80;;;1.58;;
21494;SDS011;10909;53.590;10.054;2023-07-31T00:44:22;2.03;;;1.20;;
21494;SDS011;10909;53.590;10.054;2023-07-31T00:46:48;4.15;;;1.70;;
21494;SDS011;10909;53.590;10.054;2023-07-31T00:49:14;3.35;;;1.52;;
21494;SDS011;10909;53.590;10.054;2023-07-31T00:51:40;3.97;;;1.60;;
21494;SDS011;10909;53.590;10.054;2023-07-31T00:54:06;3.25;;;1.70;;
21494;SDS011;10909;53.590;10.054;2023-07-31T00:56:32;4.00;;;1.73;;
21494;SDS011;10909;53.590;10.054;2023-07-31T00:58:58;6.15;;;1.80;;
21494;SDS011;10909;53.590;10.054;2023-07-31T01:01:24;3.10;;;1.65;;
21494;SDS011;10909;53.590;10.054;2023-07-31T01:03:50;4.22;;;1.67;;
21494;SDS011;10909;53.590;10.054;2023-07-31T01:06:23;2.25;;;1.50;;
21494;SDS011;10909;53.590;10.054;2023-07-31T01:11:48;3.88;;;1.60;;
21494;SDS011;10909;53.590;10.054;2023-07-31T01:14:17;4.32;;;1.35;;
21494;SDS011;10909;53.590;10.054;2023-07-31T01:16:43;2.28;;;1.42;;
21494;SDS011;10909;53.590;10.054;2023-07-31T01:19:09;3.65;;;1.85;;
21494;SDS011;10909;53.590;10.054;2023-07-31T01:24:36;3.22;;;1.60;;
21494;SDS011;10909;53.590;10.054;2023-07-31T01:27:17;3.58;;;1.58;;
21494;SDS011;10909;53.590;10.054;2023-07-31T01:32:40;2.60;;;1.48;;
21494;SDS011;10909;53.590;10.054;2023-07-31T01:35:07;2.60;;;1.65;;
21494;SDS011;10909;53.590;10.054;2023-07-31T01:37:33;4.07;;;1.67;;
21494;SDS011;10909;53.590;10.054;2023-07-31T01:39:59;3.03;;;1.70;;
21494;SDS011;10909;53.590;10.054;2023-07-31T01:42:25;2.80;;;1.50;;
21494;SDS011;10909;53.590;10.054;2023-07-31T01:44:50;2.08;;;1.45;;
21494;SDS011;10909;53.590;10.054;2023-07-31T01:47:16;3.15;;;1.42;;
21494;SDS011;10909;53.590;10.054;2023-07-31T01:49:41;1.80;;;1.50;;
21494;SDS011;10909;53.590;10.054;2023-07-31T01:52:07;2.08;;;1.65;;
21494;SDS011;10909;53.590;10.054;2023-07-31T01:54:34;4.03;;;1.60;;
21494;SDS011;10909;53.590;10.054;2023-07-31T01:57:02;3.03;;;1.80;;
21494;SDS011;10909;53.590;10.054;2023-07-31T01:59:28;3.95;;;1.80;;
21494;SDS011;10909;53.590;10.054;2023-07-31T02:01:54;3.45;;;1.42;;
21494;SDS011;10909;53.590;10.054;2023-07-31T02:04:19;3.42;;;1.90;;
21494;SDS011;10909;53.590;10.054;2023-07-31T02:06:45;5.50;;;1.67;;
21494;SDS011;10909;53.590;10.054;2023-07-31T02:09:11;2.75;;;1.67;;
21494;SDS011;10909;53.590;10.054;2023-07-31T02:11:36;3.97;;;1.90;;
21494;SDS011;10909;53.590;10.054;2023-07-31T02:14:05;2.10;;;1.60;;
21494;SDS011;10909;53.590;10.054;2023-07-31T02:16:30;3.40;;;1.67;;
21494;SDS011;10909;53.590;10.054;2023-07-31T02:18:56;3.45;;;1.70;;
21494;SDS011;10909;53.590;10.054;2023-07-31T02:21:22;4.63;;;2.03;;
21494;SDS011;10909;53.590;10.054;2023-07-31T02:23:48;2.60;;;1.55;;
21494;SDS011;10909;53.590;10.054;2023-07-31T02:26:14;2.95;;;1.65;;
21494;SDS011;10909;53.590;10.054;2023-07-31T02:28:39;3.58;;;1.80;;
21494;SDS011;10909;53.590;10.054;2023-07-31T02:31:07;3.58;;;2.00;;
21494;SDS011;10909;53.590;10.054;2023-07-31T02:33:33;3.25;;;1.95;;
21494;SDS011;10909;53.590;10.054;2023-07-31T02:35:59;2.83;;;1.90;;
21494;SDS011;10909;53.590;10.054;2023-07-31T02:38:26;3.45;;;1.95;;
21494;SDS011;10909;53.590;10.054;2023-07-31T02:40:52;4.13;;;1.80;;
21494;SDS011;10909;53.590;10.054;2023-07-31T02:43:17;3.50;;;1.70;;
21494;SDS011;10909;53.590;10.054;2023-07-31T02:45:43;2.90;;;1.60;;
21494;SDS011;10909;53.590;10.054;2023-07-31T02:48:09;2.42;;;1.60;;
21494;SDS011;10909;53.590;10.054;2023-07-31T02:50:34;2.65;;;1.50;;
21494;SDS011;10909;53.590;10.054;2023-07-31T02:53:01;1.92;;;1.25;;
21494;SDS011;10909;53.590;10.054;2023-07-31T02:55:27;1.77;;;1.42;;
21494;SDS011;10909;53.590;10.054;2023-07-31T02:57:52;2.50;;;1.30;;
21494;SDS011;10909;53.590;10.054;2023-07-31T03:00:19;2.05;;;1.67;;
21494;SDS011;10909;53.590;10.054;2023-07-31T03:02:44;2.03;;;1.55;;
21494;SDS011;10909;53.590;10.054;2023-07-31T03:05:10;2.60;;;1.73;;
21494;SDS011;10909;53.590;10.054;2023-07-31T03:07:36;2.03;;;1.50;;
21494;SDS011;10909;53.590;10.054;2023-07-31T03:10:07;3.55;;;1.55;;
21494;SDS011;10909;53.590;10.054;2023-07-31T03:12:33;3.10;;;1.42;;
21494;SDS011;10909;53.590;10.054;2023-07-31T03:14:59;2.05;;;1.63;;
21494;SDS011;10909;53.590;10.054;2023-07-31T03:17:25;2.50;;;1.55;;
21494;SDS011;10909;53.590;10.054;2023-07-31T03:19:50;3.10;;;1.40;;
21494;SDS011;10909;53.590;10.054;2023-07-31T03:22:16;1.75;;;1.45;;
21494;SDS011;10909;53.590;10.054;2023-07-31T03:24:41;2.95;;;1.70;;
21494;SDS011;10909;53.590;10.054;2023-07-31T03:27:07;2.05;;;1.65;;
21494;SDS011;10909;53.590;10.054;2023-07-31T03:29:33;3.60;;;1.70;;
21494;SDS011;10909;53.590;10.054;2023-07-31T03:31:58;2.40;;;1.70;;
21494;SDS011;10909;53.590;10.054;2023-07-31T03:34:24;3.08;;;1.60;;
21494;SDS011;10909;53.590;10.054;2023-07-31T03:36:50;2.58;;;1.65;;
21494;SDS011;10909;53.590;10.054;2023-07-31T03:39:15;3.08;;;1.50;;
21494;SDS011;10909;53.590;10.054;2023-07-31T03:41:42;2.58;;;1.60;;
21494;SDS011;10909;53.590;10.054;2023-07-31T03:44:07;2.17;;;1.50;;
21494;SDS011;10909;53.590;10.054;2023-07-31T03:46:33;2.22;;;1.40;;
21494;SDS011;10909;53.590;10.054;2023-07-31T03:48:59;2.40;;;1.58;;
21494;SDS011;10909;53.590;10.054;2023-07-31T03:51:26;3.42;;;1.75;;
21494;SDS011;10909;53.590;10.054;2023-07-31T03:53:52;3.40;;;1.50;;
21494;SDS011;10909;53.590;10.054;2023-07-31T03:56:18;2.35;;;1.38;;
21494;SDS011;10909;53.590;10.054;2023-07-31T03:58:43;1.90;;;1.60;;
21494;SDS011;10909;53.590;10.054;2023-07-31T04:01:09;1.75;;;1.65;;
21494;SDS011;10909;53.590;10.054;2023-07-31T04:03:35;2.35;;;1.60;;
21494;SDS011;10909;53.590;10.054;2023-07-31T04:06:01;2.08;;;1.60;;
21494;SDS011;10909;53.590;10.054;2023-07-31T04:08:27;1.52;;;1.23;;
21494;SDS011;10909;53.590;10.054;2023-07-31T04:10:53;2.70;;;1.88;;
21494;SDS011;10909;53.590;10.054;2023-07-31T04:13:19;3.97;;;1.58;;
21494;SDS011;10909;53.590;10.054;2023-07-31T04:15:48;3.10;;;1.85;;
21494;SDS011;10909;53.590;10.054;2023-07-31T04:18:15;1.70;;;1.60;;
21494;SDS011;10909;53.590;10.054;2023-07-31T04:20:41;1.60;;;1.50;;
21494;SDS011;10909;53.590;10.054;2023-07-31T04:23:06;2.60;;;1.80;;
21494;SDS011;10909;53.590;10.054;2023-07-31T04:25:32;1.85;;;1.48;;
21494;SDS011;10909;53.590;10.054;2023-07-31T04:27:59;2.20;;;1.42;;
21494;SDS011;10909;53.590;10.054;2023-07-31T04:30:26;3.05;;;1.85;;
21494;SDS011;10909;53.590;10.054;2023-07-31T04:32:52;1.83;;;1.40;;
21494;SDS011;10909;53.590;10.054;2023-07-31T04:35:17;1.38;;;1.23;;
21494;SDS011;10909;53.590;10.054;2023-07-31T04:37:44;1.85;;;1.60;;
21494;SDS011;10909;53.590;10.054;2023-07-31T04:40:13;1.58;;;1.45;;
21494;SDS011;10909;53.590;10.054;2023-07-31T04:42:39;1.88;;;1.30;;
21494;SDS011;10909;53.590;10.054;2023-07-31T04:45:05;1.70;;;1.38;;
21494;SDS011;10909;53.590;10.054;2023-07-31T04:47:31;3.08;;;1.48;;
21494;SDS011;10909;53.590;10.054;2023-07-31T04:49:56;2.58;;;1.42;;
21494;SDS011;10909;53.590;10.054;2023-07-31T04:52:22;1.90;;;1.42;;
21494;SDS011;10909;53.590;10.054;2023-07-31T04:54:47;2.03;;;1.58;;
21494;SDS011;10909;53.590;10.054;2023-07-31T04:57:13;1.83;;;1.20;;
21494;SDS011;10909;53.590;10.054;2023-07-31T04:59:39;1.60;;;1.40;;
21494;SDS011;10909;53.590;10.054;2023-07-31T05:02:05;1.35;;;1.20;;
21494;SDS011;10909;53.590;10.054;2023-07-31T05:04:32;1.52;;;1.30;;
21494;SDS011;10909;53.590;10.054;2023-07-31T05:06:57;1.25;;;1.15;;
21494;SDS011;10909;53.590;10.054;2023-07-31T05:09:23;1.35;;;1.25;;
21494;SDS011;10909;53.590;10.054;2023-07-31T05:11:48;1.55;;;1.45;;
21494;SDS011;10909;53.590;10.054;2023-07-31T05:14:14;1.70;;;1.25;;
21494;SDS011;10909;53.590;10.054;2023-07-31T05:16:40;1.40;;;1.23;;
21494;SDS011;10909;53.590;10.054;2023-07-31T05:19:12;1.50;;;1.40;;
21494;SDS011;10909;53.590;10.054;2023-07-31T05:21:37;1.20;;;1.10;;
21494;SDS011;10909;53.590;10.054;2023-07-31T05:24:04;1.23;;;1.13;;
21494;SDS011;10909;53.590;10.054;2023-07-31T05:26:29;1.77;;;1.30;;
21494;SDS011;10909;53.590;10.054;2023-07-31T05:28:55;1.80;;;1.40;;
21494;SDS011;10909;53.590;10.054;2023-07-31T05:31:21;1.67;;;1.38;;
21494;SDS011;10909;53.590;10.054;2023-07-31T05:33:47;1.52;;;1.40;;
21494;SDS011;10909;53.590;10.054;2023-07-31T05:36:15;2.85;;;1.40;;
21494;SDS011;10909;53.590;10.054;2023-07-31T05:38:41;1.58;;;1.25;;
21494;SDS011;10909;53.590;10.054;2023-07-31T05:41:09;1.55;;;1.45;;
21494;SDS011;10909;53.590;10.054;2023-07-31T05:43:35;1.38;;;1.25;;
21494;SDS011;10909;53.590;10.054;2023-07-31T05:46:01;1.65;;;1.23;;
21494;SDS011;10909;53.590;10.054;2023-07-31T05:48:27;1.65;;;1.50;;
21494;SDS011;10909;53.590;10.054;2023-07-31T05:50:53;1.67;;;1.50;;
21494;SDS011;10909;53.590;10.054;2023-07-31T05:53:18;1.63;;;1.30;;
21494;SDS011;10909;53.590;10.054;2023-07-31T05:55:44;1.75;;;1.45;;
21494;SDS011;10909;53.590;10.054;2023-07-31T05:58:10;1.75;;;1.55;;
21494;SDS011;10909;53.590;10.054;2023-07-31T06:00:35;1.70;;;1.60;;
21494;SDS011;10909;53.590;10.054;2023-07-31T06:03:04;1.65;;;1.52;;
21494;SDS011;10909;53.590;10.054;2023-07-31T06:05:29;1.40;;;1.30;;
21494;SDS011;10909;53.590;10.054;2023-07-31T06:07:55;1.65;;;1.55;;
21494;SDS011;10909;53.590;10.054;2023-07-31T06:10:22;1.60;;;1.50;;
21494;SDS011;10909;53.590;10.054;2023-07-31T06:12:47;1.40;;;1.30;;
21494;SDS011;10909;53.590;10.054;2023-07-31T06:15:13;2.28;;;1.50;;
21494;SDS011;10909;53.590;10.054;2023-07-31T06:17:39;1.38;;;1.27;;
21494;SDS011;10909;53.590;10.054;2023-07-31T06:20:06;2.28;;;1.50;;
21494;SDS011;10909;53.590;10.054;2023-07-31T06:22:32;1.50;;;1.40;;
21494;SDS011;10909;53.590;10.054;2023-07-31T06:24:58;2.35;;;1.30;;
21494;SDS011;10909;53.590;10.054;2023-07-31T06:27:24;1.70;;;1.33;;
21494;SDS011;10909;53.590;10.054;2023-07-31T06:29:49;1.50;;;1.33;;
21494;SDS011;10909;53.590;10.054;2023-07-31T06:32:15;1.25;;;1.15;;
21494;SDS011;10909;53.590;10.054;2023-07-31T06:34:41;1.45;;;1.27;;
21494;SDS011;10909;53.590;10.054;2023-07-31T06:37:06;1.90;;;1.55;;
21494;SDS011;10909;53.590;10.054;2023-07-31T06:39:32;1.45;;;1.35;;
21494;SDS011;10909;53.590;10.054;2023-07-31T06:41:58;1.40;;;1.30;;
21494;SDS011;10909;53.590;10.054;2023-07-31T06:44:23;1.55;;;1.45;;
21494;SDS011;10909;53.590;10.054;2023-07-31T06:46:49;1.60;;;1.38;;
21494;SDS011;10909;53.590;10.054;2023-07-31T06:49:15;2.38;;;1.30;;
21494;SDS011;10909;53.590;10.054;2023-07-31T06:51:41;1.00;;;0.90;;
21494;SDS011;10909;53.590;10.054;2023-07-31T06:54:07;1.40;;;1.30;;
21494;SDS011;10909;53.590;10.054;2023-07-31T06:56:33;1.33;;;1.13;;
21494;SDS011;10909;53.590;10.054;2023-07-31T06:58:59;1.27;;;1.17;;
21494;SDS011;10909;53.590;10.054;2023-07-31T07:01:26;1.50;;;1.20;;
21494;SDS011;10909;53.590;10.054;2023-07-31T07:03:53;1.40;;;1.30;;
21494;SDS011;10909;53.590;10.054;2023-07-31T07:06:19;1.35;;;1.20;;
21494;SDS011;10909;53.590;10.054;2023-07-31T07:08:45;1.45;;;1.35;;
21494;SDS011;10909;53.590;10.054;2023-07-31T07:11:11;2.78;;;1.30;;
21494;SDS011;10909;53.590;10.054;2023-07-31T07:13:36;1.48;;;1.20;;
21494;SDS011;10909;53.590;10.054;2023-07-31T07:16:02;1.33;;;1.23;;
21494;SDS011;10909;53.590;10.054;2023-07-31T07:18:27;1.40;;;1.30;;
21494;SDS011;10909;53.590;10.054;2023-07-31T07:20:53;1.80;;;1.40;;
21494;SDS011;10909;53.590;10.054;2023-07-31T07:23:20;2.03;;;1.40;;
21494;SDS011;10909;53.590;10.054;2023-07-31T07:25:46;1.30;;;1.20;;
21494;SDS011;10909;53.590;10.054;2023-07-31T07:28:13;1.40;;;1.25;;
21494;SDS011;10909;53.590;10.054;2023-07-31T07:30:39;1.20;;;1.10;;
21494;SDS011;10909;53.590;10.054;2023-07-31T07:33:04;1.92;;;1.40;;
21494;SDS011;10909;53.590;10.054;2023-07-31T07:35:33;1.52;;;1.42;;
21494;SDS011;10909;53.590;10.054;2023-07-31T07:37:59;1.45;;;1.35;;
21494;SDS011;10909;53.590;10.054;2023-07-31T07:40:27;1.23;;;1.10;;
21494;SDS011;10909;53.590;10.054;2023-07-31T07:42:53;1.05;;;1.00;;
21494;SDS011;10909;53.590;10.054;2023-07-31T07:45:18;2.53;;;1.30;;
21494;SDS011;10909;53.590;10.054;2023-07-31T07:47:44;1.30;;;1.20;;
21494;SDS011;10909;53.590;10.054;2023-07-31T07:50:09;1.02;;;0.93;;
21494;SDS011;10909;53.590;10.054;2023-07-31T07:52:35;1.38;;;1.27;;
21494;SDS011;10909;53.590;10.054;2023-07-31T07:55:02;1.60;;;1.08;;
21494;SDS011;10909;53.590;10.054;2023-07-31T07:57:28;1.20;;;1.10;;
21494;SDS011;10909;53.590;10.054;2023-07-31T07:59:55;1.25;;;1.13;;
21494;SDS011;10909;53.590;10.054;2023-07-31T08:02:21;1.50;;;1.40;;
21494;SDS011;10909;53.590;10.054;2023-07-31T08:04:47;2.47;;;1.15;;
21494;SDS011;10909;53.590;10.054;2023-07-31T08:07:13;2.80;;;1.10;;
21494;SDS011;10909;53.590;10.054;2023-07-31T08:09:39;1.55;;;1.20;;
21494;SDS011;10909;53.590;10.054;2023-07-31T08:12:06;1.60;;;1.45;;
21494;SDS011;10909;53.590;10.054;2023-07-31T08:14:32;1.50;;;1.23;;
21494;SDS011;10909;53.590;10.054;2023-07-31T08:16:58;1.30;;;1.15;;
21494;SDS011;10909;53.590;10.054;2023-07-31T08:19:24;1.67;;;1.30;;
21494;SDS011;10909;53.590;10.054;2023-07-31T08:21:49;1.42;;;1.27;;
21494;SDS011;10909;53.590;10.054;2023-07-31T08:24:15;1.17;;;1.08;;
21494;SDS011;10909;53.590;10.054;2023-07-31T08:26:42;2.20;;;1.23;;
21494;SDS011;10909;53.590;10.054;2023-07-31T08:29:07;1.40;;;1.20;;
21494;SDS011;10909;53.590;10.054;2023-07-31T08:31:33;1.13;;;1.10;;
21494;SDS011;10909;53.590;10.054;2023-07-31T08:33:59;1.45;;;1.35;;
21494;SDS011;10909;53.590;10.054;2023-07-31T08:36:27;1.52;;;1.42;;
21494;SDS011;10909;53.590;10.054;2023-07-31T08:38:52;2.50;;;1.23;;
21494;SDS011;10909;53.590;10.054;2023-07-31T08:41:18;1.33;;;1.20;;
21494;SDS011;10909;53.590;10.054;2023-07-31T08:43:44;1.20;;;1.10;;
21494;SDS011;10909;53.590;10.054;2023-07-31T08:46:11;1.13;;;1.02;;
21494;SDS011;10909;53.590;10.054;2023-07-31T08:48:37;1.45;;;1.35;;
21494;SDS011;10909;53.590;10.054;2023-07-31T08:51:06;1.30;;;1.20;;
21494;SDS011;10909;53.590;10.054;2023-07-31T08:53:32;2.13;;;1.10;;
21494;SDS011;10909;53.590;10.054;2023-07-31T08:55:58;1.63;;;1.52;;
21494;SDS011;10909;53.590;10.054;2023-07-31T08:58:24;1.45;;;1.35;;
21494;SDS011;10909;53.590;10.054;2023-07-31T09:00:52;1.50;;;1.33;;
21494;SDS011;10909;53.590;10.054;2023-07-31T09:03:19;1.42;;;1.30;;
21494;SDS011;10909;53.590;10.054;2023-07-31T09:05:48;1.38;;;1.05;;
21494;SDS011;10909;53.590;10.054;2023-07-31T09:08:16;1.30;;;1.10;;
21494;SDS011;10909;53.590;10.054;2023-07-31T09:10:44;1.15;;;1.05;;
21494;SDS011;10909;53.590;10.054;2023-07-31T09:13:14;1.40;;;1.30;;
21494;SDS011;10909;53.590;10.054;2023-07-31T09:15:40;1.33;;;1.23;;
21494;SDS011;10909;53.590;10.054;2023-07-31T09:18:09;1.15;;;1.05;;
21494;SDS011;10909;53.590;10.054;2023-07-31T09:20:35;1.38;;;1.27;;
21494;SDS011;10909;53.590;10.054;2023-07-31T09:23:10;0.98;;;0.90;;
21494;SDS011;10909;53.590;10.054;2023-07-31T09:25:37;2.08;;;1.05;;
21494;SDS011;10909;53.590;10.054;2023-07-31T09:28:05;1.30;;;1.20;;
21494;SDS011;10909;53.590;10.054;2023-07-31T09:30:30;3.58;;;1.05;;
21494;SDS011;10909;53.590;10.054;2023-07-31T09:33:09;1.00;;;0.88;;
21494;SDS011;10909;53.590;10.054;2023-07-31T09:35:34;1.10;;;1.00;;
21494;SDS011;10909;53.590;10.054;2023-07-31T09:38:06;1.10;;;0.80;;
21494;SDS011;10909;53.590;10.054;2023-07-31T09:40:40;1.40;;;1.10;;
21494;SDS011;10909;53.590;10.054;2023-07-31T09:43:08;1.80;;;1.50;;
21494;SDS011;10909;53.590;10.054;2023-07-31T09:45:37;1.30;;;1.10;;
21494;SDS011;10909;53.590;10.054;2023-07-31T09:48:05;1.67;;;1.10;;
21494;SDS011;10909;53.590;10.054;2023-07-31T09:50:37;1.10;;;1.00;;
21494;SDS011;10909;53.590;10.054;2023-07-31T09:53:04;1.65;;;1.10;;
21494;SDS011;10909;53.590;10.054;2023-07-31T09:55:30;2.20;;;1.40;;
21494;SDS011;10909;53.590;10.054;2023-07-31T09:57:56;1.00;;;0.90;;
21494;SDS011;10909;53.590;10.054;2023-07-31T10:00:22;1.10;;;0.90;;
21494;SDS011;10909;53.590;10.054;2023-07-31T10:02:52;1.00;;;0.90;;
21494;SDS011;10909;53.590;10.054;2023-07-31T10:05:19;1.02;;;0.90;;
21494;SDS011;10909;53.590;10.054;2023-07-31T10:07:49;1.25;;;0.90;;
21494;SDS011;10909;53.590;10.054;2023-07-31T10:10:19;1.75;;;1.30;;
21494;SDS011;10909;53.590;10.054;2023-07-31T10:12:47;1.80;;;1.00;;
21494;SDS011;10909;53.590;10.054;2023-07-31T10:15:17;1.20;;;1.00;;
21494;SDS011;10909;53.590;10.054;2023-07-31T10:17:49;1.25;;;1.15;;
21494;SDS011;10909;53.590;10.054;2023-07-31T10:20:15;1.65;;;1.27;;
21494;SDS011;10909;53.590;10.054;2023-07-31T10:22:42;1.27;;;1.17;;
21494;SDS011;10909;53.590;10.054;2023-07-31T10:25:11;1.38;;;1.20;;
21494;SDS011;10909;53.590;10.054;2023-07-31T10:27:40;1.50;;;1.20;;
21494;SDS011;10909;53.590;10.054;2023-07-31T10:30:11;1.20;;;1.10;;
21494;SDS011;10909;53.590;10.054;2023-07-31T10:32:40;1.00;;;0.90;;
21494;SDS011;10909;53.590;10.054;2023-07-31T10:35:07;0.98;;;0.90;;
21494;SDS011;10909;53.590;10.054;2023-07-31T10:37:38;1.40;;;1.17;;
21494;SDS011;10909;53.590;10.054;2023-07-31T10:40:06;1.15;;;1.05;;
21494;SDS011;10909;53.590;10.054;2023-07-31T10:42:35;0.85;;;0.85;;
21494;SDS011;10909;53.590;10.054;2023-07-31T10:45:05;0.70;;;0.70;;
21494;SDS011;10909;53.590;10.054;2023-07-31T10:48:06;0.98;;;0.90;;
21494;SDS011;10909;53.590;10.054;2023-07-31T10:50:29;0.95;;;0.85;;
21494;SDS011;10909;53.590;10.054;2023-07-31T10:52:58;1.85;;;1.05;;
21494;SDS011;10909;53.590;10.054;2023-07-31T10:57:56;0.65;;;0.65;;
21494;SDS011;10909;53.590;10.054;2023-07-31T11:00:25;1.20;;;0.88;;
21494;SDS011;10909;53.590;10.054;2023-07-31T11:03:03;1.67;;;1.38;;
21494;SDS011;10909;53.590;10.054;2023-07-31T11:05:59;0.82;;;0.80;;
21494;SDS011;10909;53.590;10.054;2023-07-31T11:08:34;0.75;;;0.70;;
21494;SDS011;10909;53.590;10.054;2023-07-31T11:11:06;0.60;;;0.60;;
21494;SDS011;10909;53.590;10.054;2023-07-31T11:16:06;0.45;;;0.45;;
21494;SDS011;10909;53.590;10.054;2023-07-31T11:18:32;1.20;;;1.10;;
21494;SDS011;10909;53.590;10.054;2023-07-31T11:20:57;1.10;;;1.00;;
21494;SDS011;10909;53.590;10.054;2023-07-31T11:23:23;1.00;;;0.90;;
21494;SDS011;10909;53.590;10.054;2023-07-31T11:25:49;1.00;;;0.85;;
21494;SDS011;10909;53.590;10.054;2023-07-31T11:28:16;1.13;;;0.88;;
21494;SDS011;10909;53.590;10.054;2023-07-31T11:30:44;1.20;;;1.10;;
21494;SDS011;10909;53.590;10.054;2023-07-31T11:33:11;1.20;;;1.10;;
21494;SDS011;10909;53.590;10.054;2023-07-31T11:35:45;1.52;;;1.00;;
21494;SDS011;10909;53.590;10.054;2023-07-31T11:38:20;1.10;;;1.00;;
21494;SDS011;10909;53.590;10.054;2023-07-31T11:40:47;1.00;;;0.90;;
21494;SDS011;10909;53.590;10.054;2023-07-31T11:43:13;1.02;;;0.80;;
21494;SDS011;10909;53.590;10.054;2023-07-31T11:45:42;0.60;;;0.50;;
21494;SDS011;10909;53.590;10.054;2023-07-31T11:48:19;0.50;;;0.50;;
21494;SDS011;10909;53.590;10.054;2023-07-31T11:50:58;0.60;;;0.60;;
21494;SDS011;10909;53.590;10.054;2023-07-31T11:53:58;0.52;;;0.52;;
21494;SDS011;10909;53.590;10.054;2023-07-31T11:56:19;0.60;;;0.60;;
21494;SDS011;10909;53.590;10.054;2023-07-31T11:58:46;0.70;;;0.60;;
21494;SDS011;10909;53.590;10.054;2023-07-31T12:01:14;0.57;;;0.57;;
21494;SDS011;10909;53.590;10.054;2023-07-31T12:03:42;0.88;;;0.60;;
21494;SDS011;10909;53.590;10.054;2023-07-31T12:06:09;0.50;;;0.47;;
21494;SDS011;10909;53.590;10.054;2023-07-31T12:08:34;0.30;;;0.30;;
21494;SDS011;10909;53.590;10.054;2023-07-31T12:11:05;0.70;;;0.43;;
21494;SDS011;10909;53.590;10.054;2023-07-31T12:13:32;0.50;;;0.50;;
21494;SDS011;10909;53.590;10.054;2023-07-31T12:15:59;0.45;;;0.40;;
21494;SDS011;10909;53.590;10.054;2023-07-31T12:18:29;0.47;;;0.47;;
21494;SDS011;10909;53.590;10.054;2023-07-31T12:21:00;0.68;;;0.50;;
21494;SDS011;10909;53.590;10.054;2023-07-31T12:23:28;0.52;;;0.52;;
21494;SDS011;10909;53.590;10.054;2023-07-31T12:26:14;0.52;;;0.52;;
21494;SDS011;10909;53.590;10.054;2023-07-31T12:28:45;0.30;;;0.30;;
21494;SDS011;10909;53.590;10.054;2023-07-31T12:31:15;0.80;;;0.55;;
21494;SDS011;10909;53.590;10.054;2023-07-31T12:33:46;0.32;;;0.32;;
21494;SDS011;10909;53.590;10.054;2023-07-31T12:36:15;0.50;;;0.50;;
21494;SDS011;10909;53.590;10.054;2023-07-31T12:38:42;0.30;;;0.30;;
21494;SDS011;10909;53.590;10.054;2023-07-31T12:41:08;0.50;;;0.17;;
21494;SDS011;10909;53.590;10.054;2023-07-31T12:43:35;0.65;;;0.47;;
21494;SDS011;10909;53.590;10.054;2023-07-31T12:46:02;0.25;;;0.22;;
21494;SDS011;10909;53.590;10.054;2023-07-31T12:48:28;0.88;;;0.50;;
21494;SDS011;10909;53.590;10.054;2023-07-31T12:50:54;0.38;;;0.38;;
21494;SDS011;10909;53.590;10.054;2023-07-31T12:53:19;0.52;;;0.43;;
21494;SDS011;10909;53.590;10.054;2023-07-31T12:55:45;0.50;;;0.50;;
21494;SDS011;10909;53.590;10.054;2023-07-31T12:58:11;0.38;;;0.30;;
21494;SDS011;10909;53.590;10.054;2023-07-31T13:00:38;0.40;;;0.30;;
21494;SDS011;10909;53.590;10.054;2023-07-31T13:03:04;0.43;;;0.40;;
21494;SDS011;10909;53.590;10.054;2023-07-31T13:05:29;0.32;;;0.32;;
21494;SDS011;10909;53.590;10.054;2023-07-31T13:07:55;0.43;;;0.43;;
21494;SDS011;10909;53.590;10.054;2023-07-31T13:10:22;0.73;;;0.50;;
21494;SDS011;10909;53.590;10.054;2023-07-31T13:12:48;0.40;;;0.40;;
21494;SDS011;10909;53.590;10.054;2023-07-31T13:15:14;0.40;;;0.40;;
21494;SDS011;10909;53.590;10.054;2023-07-31T13:17:40;0.40;;;0.40;;
21494;SDS011;10909;53.590;10.054;2023-07-31T13:20:06;0.45;;;0.38;;
21494;SDS011;10909;53.590;10.054;2023-07-31T13:22:32;0.20;;;0.20;;
21494;SDS011;10909;53.590;10.054;2023-07-31T13:24:57;0.32;;;0.32;;
21494;SDS011;10909;53.590;10.054;2023-07-31T13:27:23;0.32;;;0.30;;
21494;SDS011;10909;53.590;10.054;2023-07-31T13:29:49;0.20;;;0.20;;
21494;SDS011;10909;53.590;10.054;2023-07-31T13:32:16;0.22;;;0.22;;
21494;SDS011;10909;53.590;10.054;2023-07-31T13:34:42;0.13;;;0.13;;
21494;SDS011;10909;53.590;10.054;2023-07-31T13:37:08;0.45;;;0.45;;
21494;SDS011;10909;53.590;10.054;2023-07-31T13:39:34;0.38;;;0.38;;
21494;SDS011;10909;53.590;10.054;2023-07-31T13:42:00;0.90;;;0.80;;
21494;SDS011;10909;53.590;10.054;2023-07-31T13:44:26;0.80;;;0.80;;
21494;SDS011;10909;53.590;10.054;2023-07-31T13:46:52;0.38;;;0.38;;
21494;SDS011;10909;53.590;10.054;2023-07-31T13:49:18;0.32;;;0.32;;
21494;SDS011;10909;53.590;10.054;2023-07-31T13:51:43;0.88;;;0.60;;
21494;SDS011;10909;53.590;10.054;2023-07-31T13:54:09;0.30;;;0.30;;
21494;SDS011;10909;53.590;10.054;2023-07-31T13:56:36;1.63;;;0.45;;
21494;SDS011;10909;53.590;10.054;2023-07-31T13:59:03;0.50;;;0.50;;
21494;SDS011;10909;53.590;10.054;2023-07-31T14:01:29;0.52;;;0.52;;
21494;SDS011;10909;53.590;10.054;2023-07-31T14:03:54;0.35;;;0.35;;
21494;SDS011;10909;53.590;10.054;2023-07-31T14:06:20;0.50;;;0.50;;
21494;SDS011;10909;53.590;10.054;2023-07-31T14:08:46;0.50;;;0.50;;
21494;SDS011;10909;53.590;10.054;2023-07-31T14:11:12;0.50;;;0.50;;
21494;SDS011;10909;53.590;10.054;2023-07-31T14:13:37;0.35;;;0.30;;
21494;SDS011;10909;53.590;10.054;2023-07-31T14:16:03;0.50;;;0.50;;
21494;SDS011;10909;53.590;10.054;2023-07-31T14:18:29;1.95;;;0.70;;
21494;SDS011;10909;53.590;10.054;2023-07-31T14:20:54;0.50;;;0.50;;
21494;SDS011;10909;53.590;10.054;2023-07-31T14:23:20;0.80;;;0.47;;
21494;SDS011;10909;53.590;10.054;2023-07-31T14:25:46;0.70;;;0.70;;
21494;SDS011;10909;53.590;10.054;2023-07-31T14:28:12;0.70;;;0.70;;
21494;SDS011;10909;53.590;10.054;2023-07-31T14:30:38;1.83;;;0.82;;
21494;SDS011;10909;53.590;10.054;2023-07-31T14:33:04;0.73;;;0.60;;
21494;SDS011;10909;53.590;10.054;2023-07-31T14:35:29;0.65;;;0.50;;
21494;SDS011;10909;53.590;10.054;2023-07-31T14:37:55;1.15;;;0.70;;
21494;SDS011;10909;53.590;10.054;2023-07-31T14:40:21;0.75;;;0.50;;
21494;SDS011;10909;53.590;10.054;2023-07-31T14:42:46;0.77;;;0.70;;
21494;SDS011;10909;53.590;10.054;2023-07-31T14:45:12;0.90;;;0.73;;